createdAt,value
2023-05-23T00:01:14.714Z,102064.69
2023-05-23T00:03:41.314Z,102064.59
2023-05-23T00:06:08.191Z,102062.91
2023-05-23T00:08:34.916Z,102069.06
2023-05-23T00:11:01.416Z,102070.81
2023-05-23T00:13:27.956Z,102063.50
2023-05-23T00:15:54.556Z,102066.09
2023-05-23T00:18:20.984Z,102071.31
2023-05-23T00:20:47.452Z,102072.97
2023-05-23T00:23:19.074Z,102063.75
2023-05-23T00:25:48.535Z,102076.88
2023-05-23T00:28:16.008Z,102090.81
2023-05-23T00:30:43.036Z,102073.16
2023-05-23T00:33:09.658Z,102082.81
2023-05-23T00:35:36.145Z,102091.47
2023-05-23T00:38:03.451Z,102090.78
2023-05-23T00:40:29.964Z,102100.31
2023-05-23T00:42:56.772Z,102092.88
2023-05-23T00:45:23.449Z,102094.03
2023-05-23T00:47:51.512Z,102095.69
2023-05-23T00:50:18.622Z,102103.50
2023-05-23T00:52:47.002Z,102088.34
2023-05-23T00:55:14.464Z,102103.84
2023-05-23T00:57:41.613Z,102107.13
2023-05-23T01:00:10.062Z,102099.41
2023-05-23T01:02:43.532Z,102095.97
2023-05-23T01:05:11.513Z,102104.59
2023-05-23T01:07:38.064Z,102112.47
2023-05-23T01:10:05.309Z,102104.91
2023-05-23T01:12:44.980Z,102096.38
2023-05-23T01:15:15.478Z,102098.19
2023-05-23T01:18:04.936Z,102098.22
2023-05-23T01:20:36.330Z,102104.16
2023-05-23T01:23:21.273Z,102104.13
2023-05-23T01:25:50.865Z,102097.06
2023-05-23T01:28:21.380Z,102100.47
2023-05-23T01:30:52.267Z,102105.56
2023-05-23T01:33:22.652Z,102093.44
2023-05-23T01:35:49.595Z,102095.03
2023-05-23T01:38:16.225Z,102089.78
2023-05-23T01:40:42.754Z,102099.03
2023-05-23T01:43:09.518Z,102093.94
2023-05-23T01:45:36.326Z,102098.16
2023-05-23T01:48:04.194Z,102089.75
2023-05-23T01:50:32.636Z,102104.50
2023-05-23T01:52:59.684Z,102094.34
2023-05-23T01:55:27.055Z,102106.31
2023-05-23T01:57:59.507Z,102109.72
2023-05-23T02:00:26.062Z,102110.63
2023-05-23T02:02:52.816Z,102109.75
2023-05-23T02:05:19.388Z,102115.81
2023-05-23T02:07:46.049Z,102108.91
2023-05-23T02:10:12.617Z,102116.66
2023-05-23T02:12:39.049Z,102127.78
2023-05-23T02:15:05.955Z,102126.19
2023-05-23T02:17:32.708Z,102127.06
2023-05-23T02:19:59.174Z,102126.06
2023-05-23T02:22:25.839Z,102126.81
2023-05-23T02:24:52.736Z,102126.78
2023-05-23T02:27:19.862Z,102128.47
2023-05-23T02:29:46.536Z,102125.22
2023-05-23T02:32:13.211Z,102131.28
2023-05-23T02:34:40.309Z,102137.25
2023-05-23T02:37:07.118Z,102134.63
2023-05-23T02:39:37.044Z,102136.25
2023-05-23T02:42:04.797Z,102131.00
2023-05-23T02:44:31.553Z,102133.53
2023-05-23T02:46:58.236Z,102141.28
2023-05-23T02:49:24.648Z,102143.84
2023-05-23T02:51:51.450Z,102143.72
2023-05-23T02:54:17.871Z,102143.66
2023-05-23T02:56:45.921Z,102148.88
2023-05-23T02:59:12.636Z,102154.03
2023-05-23T03:01:39.147Z,102151.44
2023-05-23T03:04:05.757Z,102148.91
2023-05-23T03:06:33.935Z,102138.63
2023-05-23T03:09:01.360Z,102143.72
2023-05-23T03:11:29.736Z,102145.50
2023-05-23T03:13:56.421Z,102142.00
2023-05-23T03:16:24.055Z,102143.91
2023-05-23T03:18:50.609Z,102142.19
2023-05-23T03:21:17.113Z,102143.97
2023-05-23T03:23:43.528Z,102142.28
2023-05-23T03:26:10.487Z,102144.84
2023-05-23T03:28:36.947Z,102159.56
2023-05-23T03:31:03.510Z,102150.41
2023-05-23T03:33:29.908Z,102148.78
2023-05-23T03:35:57.611Z,102146.25
2023-05-23T03:38:24.074Z,102155.75
2023-05-23T03:40:50.553Z,102156.63
2023-05-23T03:43:16.940Z,102154.13
2023-05-23T03:45:43.714Z,102157.59
2023-05-23T03:48:10.855Z,102161.78
2023-05-23T03:50:37.332Z,102172.13
2023-05-23T03:53:03.816Z,102172.09
2023-05-23T03:55:32.518Z,102177.31
2023-05-23T03:57:59.172Z,102165.41
2023-05-23T04:00:26.263Z,102179.19
2023-05-23T04:02:53.104Z,102188.75
2023-05-23T04:05:19.645Z,102182.06
2023-05-23T04:07:46.628Z,102193.16
2023-05-23T04:10:13.123Z,102191.34
2023-05-23T04:12:41.547Z,102205.94
2023-05-23T04:15:08.936Z,102196.53
2023-05-23T04:17:35.581Z,102194.91
2023-05-23T04:20:02.098Z,102206.94
2023-05-23T04:22:28.522Z,102201.00
2023-05-23T04:24:54.914Z,102201.94
2023-05-23T04:27:22.290Z,102203.66
2023-05-23T04:29:48.900Z,102216.50
2023-05-23T04:32:16.833Z,102219.09
2023-05-23T04:34:44.319Z,102212.31
2023-05-23T04:37:11.638Z,102221.88
2023-05-23T04:39:38.518Z,102218.59
2023-05-23T04:42:07.345Z,102222.03
2023-05-23T04:44:34.131Z,102223.00
2023-05-23T04:47:02.503Z,102225.53
2023-05-23T04:49:29.443Z,102228.19
2023-05-23T04:51:55.943Z,102228.19
2023-05-23T04:54:22.347Z,102231.66
2023-05-23T04:56:49.088Z,102235.97
2023-05-23T04:59:15.621Z,102248.91
2023-05-23T05:01:42.178Z,102255.00
2023-05-23T05:04:08.715Z,102247.34
2023-05-23T05:06:35.423Z,102261.06
2023-05-23T05:09:01.963Z,102262.88
2023-05-23T05:11:28.627Z,102267.09
2023-05-23T05:13:55.191Z,102273.91
2023-05-23T05:16:22.312Z,102270.50
2023-05-23T05:18:48.916Z,102275.66
2023-05-23T05:21:15.434Z,102276.50
2023-05-23T05:23:41.917Z,102286.69
2023-05-23T05:26:08.714Z,102293.56
2023-05-23T05:28:35.340Z,102289.38
2023-05-23T05:31:07.721Z,102294.63
2023-05-23T05:33:37.770Z,102297.31
2023-05-23T05:36:07.994Z,102308.47
2023-05-23T05:38:44.663Z,102302.53
2023-05-23T05:41:11.148Z,102311.13
2023-05-23T05:43:37.632Z,102307.50
2023-05-23T05:46:04.398Z,102319.41
2023-05-23T05:48:30.878Z,102315.13
2023-05-23T05:50:57.521Z,102316.81
2023-05-23T05:53:25.840Z,102321.13
2023-05-23T05:55:54.552Z,102318.41
2023-05-23T05:58:21.100Z,102326.88
2023-05-23T06:00:48.951Z,102331.25
2023-05-23T06:03:15.870Z,102329.53
2023-05-23T06:05:43.374Z,102326.94
2023-05-23T06:08:10.419Z,102339.91
2023-05-23T06:10:39.866Z,102336.47
2023-05-23T06:13:06.743Z,102346.63
2023-05-23T06:15:33.341Z,102348.31
2023-05-23T06:17:59.998Z,102349.97
2023-05-23T06:20:26.638Z,102353.38
2023-05-23T06:22:53.281Z,102356.97
2023-05-23T06:25:20.042Z,102355.28
2023-05-23T06:27:46.786Z,102343.28
2023-05-23T06:30:14.028Z,102342.28
2023-05-23T06:32:41.131Z,102347.31
2023-05-23T06:35:08.098Z,102338.75
2023-05-23T06:37:35.451Z,102350.81
2023-05-23T06:40:02.161Z,102351.72
2023-05-23T06:42:28.837Z,102346.53
2023-05-23T06:44:55.452Z,102350.81
2023-05-23T06:47:22.929Z,102357.75
2023-05-23T06:49:49.529Z,102351.81
2023-05-23T06:52:16.429Z,102360.22
2023-05-23T06:54:43.653Z,102359.34
2023-05-23T06:57:10.255Z,102366.22
2023-05-23T06:59:36.806Z,102363.66
2023-05-23T07:02:05.645Z,102365.34
2023-05-23T07:04:32.204Z,102368.72
2023-05-23T07:06:58.892Z,102365.28
2023-05-23T07:09:25.742Z,102373.88
2023-05-23T07:11:52.278Z,102361.91
2023-05-23T07:14:20.359Z,102372.22
2023-05-23T07:16:47.039Z,102388.47
2023-05-23T07:19:13.654Z,102381.84
2023-05-23T07:21:40.232Z,102390.56
2023-05-23T07:24:06.931Z,102385.47
2023-05-23T07:26:33.504Z,102385.41
2023-05-23T07:29:00.138Z,102389.63
2023-05-23T07:31:27.061Z,102392.00
2023-05-23T07:33:56.808Z,102392.69
2023-05-23T07:36:23.743Z,102401.16
2023-05-23T07:38:50.280Z,102391.56
2023-05-23T07:41:16.846Z,102396.66
2023-05-23T07:43:43.423Z,102397.44
2023-05-23T07:46:10.068Z,102392.28
2023-05-23T07:48:36.762Z,102402.56
2023-05-23T07:51:03.947Z,102393.97
2023-05-23T07:53:30.727Z,102398.19
2023-05-23T07:55:57.353Z,102401.53
2023-05-23T07:58:23.871Z,102402.25
2023-05-23T08:00:52.490Z,102402.78
2023-05-23T08:03:19.658Z,102398.25
2023-05-23T08:05:47.393Z,102398.06
2023-05-23T08:08:13.982Z,102403.22
2023-05-23T08:10:41.023Z,102404.88
2023-05-23T08:13:10.141Z,102417.88
2023-05-23T08:15:36.768Z,102412.69
2023-05-23T08:18:05.300Z,102422.91
2023-05-23T08:20:32.342Z,102411.69
2023-05-23T08:23:03.292Z,102409.16
2023-05-23T08:25:30.649Z,102409.16
2023-05-23T08:28:01.450Z,102422.03
2023-05-23T08:30:29.274Z,102405.75
2023-05-23T08:32:57.018Z,102421.13
2023-05-23T08:35:24.375Z,102426.97
2023-05-23T08:37:52.355Z,102429.31
2023-05-23T08:40:21.390Z,102434.38
2023-05-23T08:42:49.145Z,102431.88
2023-05-23T08:45:19.910Z,102435.16
2023-05-23T08:47:46.799Z,102443.88
2023-05-23T08:50:16.507Z,102440.44
2023-05-23T08:52:45.948Z,102446.19
2023-05-23T08:55:13.046Z,102445.00
2023-05-23T08:57:43.754Z,102444.72
2023-05-23T09:00:15.019Z,102453.03
2023-05-23T09:02:44.938Z,102455.88
2023-05-23T09:05:12.475Z,102449.97
2023-05-23T09:07:39.869Z,102458.50
2023-05-23T09:10:08.032Z,102451.59
2023-05-23T09:12:37.153Z,102454.88
2023-05-23T09:15:05.706Z,102451.94
2023-05-23T09:17:33.526Z,102448.03
2023-05-23T09:20:00.925Z,102480.44
2023-05-23T09:22:28.488Z,102472.97
2023-05-23T09:24:56.170Z,102473.59
2023-05-23T09:27:23.691Z,102469.50
2023-05-23T09:29:50.766Z,102480.63
2023-05-23T09:32:19.709Z,102477.06
2023-05-23T09:34:57.100Z,102476.75
2023-05-23T09:37:41.028Z,102469.75
2023-05-23T09:40:13.291Z,102484.41
2023-05-23T09:42:46.135Z,102476.66
2023-05-23T09:45:17.334Z,102481.16
2023-05-23T09:47:51.912Z,102472.91
2023-05-23T09:50:19.176Z,102472.91
2023-05-23T09:52:46.678Z,102479.31
2023-05-23T09:55:15.826Z,102475.22
2023-05-23T09:57:44.240Z,102470.88
2023-05-23T10:00:13.752Z,102475.00
2023-05-23T10:02:46.463Z,102491.78
2023-05-23T10:05:27.330Z,102487.50
2023-05-23T10:07:54.269Z,102488.19
2023-05-23T10:10:21.158Z,102493.78
2023-05-23T10:12:51.824Z,102486.22
2023-05-23T10:15:20.161Z,102472.19
2023-05-23T10:17:59.578Z,102480.06
2023-05-23T10:20:31.925Z,102477.53
2023-05-23T10:23:03.332Z,102508.88
2023-05-23T10:25:30.399Z,102502.63
2023-05-23T10:28:04.437Z,102489.44
2023-05-23T10:30:31.592Z,102499.88
2023-05-23T10:32:59.912Z,102503.25
2023-05-23T10:35:30.523Z,102503.47
2023-05-23T10:38:00.050Z,102497.41
2023-05-23T10:40:26.576Z,102498.44
2023-05-23T10:43:00.304Z,102498.88
2023-05-23T10:45:27.913Z,102507.88
2023-05-23T10:47:54.764Z,102498.28
2023-05-23T10:50:33.563Z,102501.84
2023-05-23T10:53:03.277Z,102513.06
2023-05-23T10:55:34.795Z,102509.69
2023-05-23T10:58:12.013Z,102505.97
2023-05-23T11:00:39.063Z,102511.16
2023-05-23T11:03:09.269Z,102514.00
2023-05-23T11:05:38.732Z,102511.59
2023-05-23T11:08:11.574Z,102509.72
2023-05-23T11:10:54.302Z,102510.56
2023-05-23T11:13:21.909Z,102513.44
2023-05-23T11:15:49.164Z,102507.38
2023-05-23T11:18:29.066Z,102503.09
2023-05-23T11:20:55.680Z,102496.69
2023-05-23T11:23:23.106Z,102491.75
2023-05-23T11:25:52.123Z,102508.53
2023-05-23T11:28:19.554Z,102511.56
2023-05-23T11:30:49.753Z,102513.84
2023-05-23T11:33:18.372Z,102513.44
2023-05-23T11:35:48.026Z,102515.94
2023-05-23T11:38:16.748Z,102516.09
2023-05-23T11:40:47.710Z,102514.50
2023-05-23T11:43:19.812Z,102516.44
2023-05-23T11:45:49.408Z,102515.44
2023-05-23T11:48:17.701Z,102514.84
2023-05-23T11:50:50.036Z,102513.63
2023-05-23T11:53:20.970Z,102508.97
2023-05-23T11:56:00.319Z,102517.84
2023-05-23T11:58:30.396Z,102509.09
2023-05-23T12:01:05.478Z,102520.13
2023-05-23T12:03:33.126Z,102540.56
2023-05-23T12:06:01.904Z,102531.19
2023-05-23T12:08:28.488Z,102531.00
2023-05-23T12:11:00.131Z,102530.38
2023-05-23T12:13:29.086Z,102535.00
2023-05-23T12:16:00.503Z,102528.50
2023-05-23T12:18:33.899Z,102529.88
2023-05-23T12:21:07.993Z,102534.06
2023-05-23T12:23:35.991Z,102537.00
2023-05-23T12:26:10.395Z,102535.09
2023-05-23T12:28:38.901Z,102535.78
2023-05-23T12:31:16.845Z,102520.56
2023-05-23T12:33:45.437Z,102526.75
2023-05-23T12:36:12.529Z,102526.41
2023-05-23T12:38:40.939Z,102543.59
2023-05-23T12:41:19.915Z,102535.91
2023-05-23T12:43:54.944Z,102532.22
2023-05-23T12:46:23.637Z,102538.22
2023-05-23T12:48:50.779Z,102543.34
2023-05-23T12:51:17.605Z,102534.81
2023-05-23T12:53:44.259Z,102550.81
2023-05-23T12:56:11.795Z,102542.09
2023-05-23T12:58:38.428Z,102553.13
2023-05-23T13:01:05.116Z,102551.25
2023-05-23T13:03:32.480Z,102537.44
2023-05-23T13:05:59.921Z,102537.72
2023-05-23T13:08:27.538Z,102539.25
2023-05-23T13:10:54.404Z,102546.13
2023-05-23T13:13:21.089Z,102543.00
2023-05-23T13:15:48.959Z,102535.13
2023-05-23T13:18:17.573Z,102540.94
2023-05-23T13:20:44.232Z,102539.00
2023-05-23T13:23:10.885Z,102543.91
2023-05-23T13:25:37.512Z,102542.00
2023-05-23T13:28:04.105Z,102550.88
2023-05-23T13:30:31.256Z,102555.09
2023-05-23T13:32:57.932Z,102547.66
2023-05-23T13:35:24.590Z,102546.63
2023-05-23T13:37:51.224Z,102547.28
2023-05-23T13:40:20.455Z,102553.09
2023-05-23T13:42:51.503Z,102551.72
2023-05-23T13:45:19.136Z,102555.28
2023-05-23T13:47:46.716Z,102555.28
2023-05-23T13:50:13.816Z,102561.13
2023-05-23T13:52:44.139Z,102564.78
2023-05-23T13:55:12.540Z,102572.56
2023-05-23T13:57:39.159Z,102564.97
2023-05-23T14:00:06.380Z,102555.94
2023-05-23T14:02:33.019Z,102556.44
2023-05-23T14:04:59.589Z,102552.91
2023-05-23T14:07:26.215Z,102564.34
2023-05-23T14:09:52.755Z,102572.50
2023-05-23T14:12:19.303Z,102563.59
2023-05-23T14:14:45.908Z,102552.97
2023-05-23T14:17:16.868Z,102558.09
2023-05-23T14:19:44.134Z,102558.59
2023-05-23T14:22:11.596Z,102555.00
2023-05-23T14:24:38.157Z,102558.66
2023-05-23T14:27:05.058Z,102559.94
2023-05-23T14:29:31.812Z,102558.22
2023-05-23T14:32:00.872Z,102557.53
2023-05-23T14:34:27.569Z,102546.97
2023-05-23T14:36:54.270Z,102554.28
2023-05-23T14:39:20.927Z,102547.59
2023-05-23T14:41:47.493Z,102560.28
2023-05-23T14:44:14.139Z,102549.25
2023-05-23T14:46:42.728Z,102553.81
2023-05-23T14:49:09.353Z,102560.34
2023-05-23T14:51:46.177Z,102553.84
2023-05-23T14:54:17.100Z,102553.53
2023-05-23T14:56:46.826Z,102556.59
2023-05-23T14:59:13.515Z,102561.28
2023-05-23T15:01:40.867Z,102570.25
2023-05-23T15:04:09.838Z,102572.28
2023-05-23T15:06:38.187Z,102565.63
2023-05-23T15:09:05.282Z,102568.00
2023-05-23T15:11:42.447Z,102560.72
2023-05-23T15:14:09.062Z,102564.97
2023-05-23T15:16:36.941Z,102569.03
2023-05-23T15:19:05.602Z,102569.53
2023-05-23T15:21:32.349Z,102579.53
2023-05-23T15:23:59.865Z,102576.34
2023-05-23T15:26:27.455Z,102570.44
2023-05-23T15:28:54.051Z,102579.50
2023-05-23T15:31:20.945Z,102568.72
2023-05-23T15:33:48.017Z,102560.38
2023-05-23T15:36:14.684Z,102566.38
2023-05-23T15:38:41.254Z,102568.31
2023-05-23T15:41:07.888Z,102563.16
2023-05-23T15:43:37.638Z,102563.41
2023-05-23T15:46:05.123Z,102552.34
2023-05-23T15:48:31.740Z,102558.00
2023-05-23T15:50:58.283Z,102578.31
2023-05-23T15:53:24.835Z,102571.00
2023-05-23T15:55:51.403Z,102569.44
2023-05-23T15:58:18.200Z,102566.41
2023-05-23T16:00:44.850Z,102569.94
2023-05-23T16:03:11.474Z,102572.22
2023-05-23T16:05:38.227Z,102567.59
2023-05-23T16:08:05.085Z,102567.00
2023-05-23T16:10:31.645Z,102566.28
2023-05-23T16:12:58.180Z,102571.63
2023-05-23T16:15:24.735Z,102578.25
2023-05-23T16:17:51.616Z,102581.06
2023-05-23T16:20:18.351Z,102575.13
2023-05-23T16:22:45.959Z,102582.41
2023-05-23T16:25:12.701Z,102572.84
2023-05-23T16:27:40.627Z,102571.53
2023-05-23T16:30:08.014Z,102579.66
2023-05-23T16:32:34.666Z,102574.06
2023-05-23T16:35:01.564Z,102565.72
2023-05-23T16:37:28.304Z,102562.31
2023-05-23T16:39:54.943Z,102563.97
2023-05-23T16:42:22.505Z,102556.09
2023-05-23T16:44:49.244Z,102565.72
2023-05-23T16:47:17.308Z,102572.69
2023-05-23T16:49:43.915Z,102578.44
2023-05-23T16:52:10.489Z,102566.53
2023-05-23T16:54:37.352Z,102565.63
2023-05-23T16:57:06.826Z,102569.28
2023-05-23T17:02:00.080Z,102568.97
2023-05-23T17:04:28.449Z,102569.81
2023-05-23T17:06:55.070Z,102566.72
2023-05-23T17:09:22.699Z,102565.53
2023-05-23T17:11:51.209Z,102563.84
2023-05-23T17:14:17.791Z,102567.41
2023-05-23T17:16:44.412Z,102573.09
2023-05-23T17:19:11.127Z,102574.28
2023-05-23T17:21:37.787Z,102563.25
2023-05-23T17:24:04.618Z,102576.56
2023-05-23T17:26:31.247Z,102569.31
2023-05-23T17:28:57.846Z,102566.97
2023-05-23T17:31:24.602Z,102575.75
2023-05-23T17:33:51.162Z,102574.53
2023-05-23T17:36:17.748Z,102580.28
2023-05-23T17:38:44.410Z,102581.28
2023-05-23T17:41:11.042Z,102578.88
2023-05-23T17:43:37.526Z,102588.81
2023-05-23T17:46:05.149Z,102592.63
2023-05-23T17:48:45.712Z,102593.94
2023-05-23T17:51:14.023Z,102600.47
2023-05-23T17:53:41.745Z,102601.81
2023-05-23T17:56:09.552Z,102608.22
2023-05-23T17:58:37.695Z,102592.47
2023-05-23T18:01:07.918Z,102608.00
2023-05-23T18:03:34.540Z,102601.59
2023-05-23T18:06:01.157Z,102605.09
2023-05-23T18:08:27.726Z,102613.50
2023-05-23T18:10:54.318Z,102607.03
2023-05-23T18:13:21.402Z,102610.53
2023-05-23T18:15:47.961Z,102616.69
2023-05-23T18:18:16.577Z,102610.56
2023-05-23T18:20:43.554Z,102604.34
2023-05-23T18:23:10.710Z,102614.19
2023-05-23T18:25:37.327Z,102614.53
2023-05-23T18:28:03.957Z,102619.03
2023-05-23T18:30:30.648Z,102613.22
2023-05-23T18:32:59.128Z,102618.44
2023-05-23T18:35:26.041Z,102610.94
2023-05-23T18:37:53.862Z,102613.63
2023-05-23T18:40:21.853Z,102613.75
2023-05-23T18:42:48.651Z,102615.56
2023-05-23T18:45:15.317Z,102617.38
2023-05-23T18:47:42.320Z,102629.56
2023-05-23T18:50:09.351Z,102615.28
2023-05-23T18:52:37.337Z,102618.88
2023-05-23T18:55:05.237Z,102616.34
2023-05-23T18:57:32.396Z,102623.28
2023-05-23T18:59:58.912Z,102624.25
2023-05-23T19:02:26.009Z,102616.56
2023-05-23T19:04:52.831Z,102623.50
2023-05-23T19:07:19.545Z,102624.38
2023-05-23T19:09:46.987Z,102633.81
2023-05-23T19:12:13.624Z,102641.47
2023-05-23T19:14:40.226Z,102644.97
2023-05-23T19:17:07.155Z,102639.00
2023-05-23T19:19:34.852Z,102651.91
2023-05-23T19:22:01.592Z,102641.75
2023-05-23T19:24:28.190Z,102643.69
2023-05-23T19:26:56.260Z,102637.00
2023-05-23T19:29:22.806Z,102648.25
2023-05-23T19:31:49.498Z,102640.56
2023-05-23T19:34:16.278Z,102646.66
2023-05-23T19:36:43.800Z,102647.56
2023-05-23T19:39:12.368Z,102656.19
2023-05-23T19:41:40.289Z,102646.00
2023-05-23T19:44:06.906Z,102657.25
2023-05-23T19:46:35.709Z,102654.69
2023-05-23T19:49:02.466Z,102664.19
2023-05-23T19:51:29.170Z,102664.25
2023-05-23T19:53:55.919Z,102678.94
2023-05-23T19:56:22.940Z,102671.22
2023-05-23T19:58:49.484Z,102675.53
2023-05-23T20:01:16.069Z,102684.13
2023-05-23T20:03:43.057Z,102689.31
2023-05-23T20:06:09.885Z,102699.59
2023-05-23T20:08:36.407Z,102697.09
2023-05-23T20:11:04.514Z,102705.69
2023-05-23T20:13:31.147Z,102697.19
2023-05-23T20:15:58.357Z,102692.03
2023-05-23T20:18:25.056Z,102695.44
2023-05-23T20:20:51.572Z,102697.25
2023-05-23T20:23:18.343Z,102697.25
2023-05-23T20:25:44.985Z,102694.66
2023-05-23T20:28:11.861Z,102692.97
2023-05-23T20:30:38.460Z,102692.16
2023-05-23T20:33:05.072Z,102687.91
2023-05-23T20:35:31.965Z,102690.47
2023-05-23T20:37:59.382Z,102681.97
2023-05-23T20:40:27.425Z,102684.53
2023-05-23T20:42:53.884Z,102687.97
2023-05-23T20:45:20.504Z,102682.00
2023-05-23T20:47:47.392Z,102674.31
2023-05-23T20:50:14.951Z,102676.03
2023-05-23T20:52:43.088Z,102678.63
2023-05-23T20:55:10.836Z,102675.19
2023-05-23T20:57:37.814Z,102681.19
2023-05-23T21:00:13.466Z,102681.25
2023-05-23T21:02:41.287Z,102676.94
2023-05-23T21:05:09.241Z,102683.81
2023-05-23T21:07:36.681Z,102684.69
2023-05-23T21:10:04.527Z,102696.66
2023-05-23T21:12:31.060Z,102689.84
2023-05-23T21:14:57.655Z,102689.84
2023-05-23T21:17:24.685Z,102698.44
2023-05-23T21:19:51.603Z,102692.41
2023-05-23T21:22:18.231Z,102695.00
2023-05-23T21:24:44.744Z,102695.91
2023-05-23T21:27:11.687Z,102695.09
2023-05-23T21:29:38.238Z,102698.56
2023-05-23T21:32:04.951Z,102695.16
2023-05-23T21:34:31.441Z,102693.47
2023-05-23T21:36:58.072Z,102686.66
2023-05-23T21:39:25.279Z,102674.72
2023-05-23T21:41:52.664Z,102679.88
2023-05-23T21:44:20.201Z,102674.75
2023-05-23T21:46:47.149Z,102676.53
2023-05-23T21:49:14.021Z,102685.94
2023-05-23T21:51:40.568Z,102673.13
2023-05-23T21:54:07.118Z,102682.50
2023-05-23T21:56:33.958Z,102679.97
2023-05-23T21:59:00.488Z,102682.53
2023-05-23T22:01:27.002Z,102682.50
2023-05-23T22:03:53.692Z,102685.03
2023-05-23T22:06:20.339Z,102692.69
2023-05-23T22:08:46.797Z,102687.56
2023-05-23T22:11:13.301Z,102692.66
2023-05-23T22:13:42.755Z,102690.94
2023-05-23T22:16:09.411Z,102689.22
2023-05-23T22:18:51.150Z,102691.78
2023-05-23T22:21:18.274Z,102692.63
2023-05-23T22:23:44.730Z,102684.06
2023-05-23T22:26:12.580Z,102682.34
2023-05-23T22:28:39.203Z,102686.63
2023-05-23T22:31:05.850Z,102689.16
2023-05-23T22:33:32.375Z,102689.09
2023-05-23T22:35:58.974Z,102691.66
2023-05-23T22:38:25.629Z,102689.09
2023-05-23T22:40:52.138Z,102690.78
2023-05-23T22:43:21.649Z,102693.34
2023-05-23T22:45:50.129Z,102685.63
2023-05-23T22:48:19.386Z,102685.59
2023-05-23T22:50:46.733Z,102688.13
2023-05-23T22:53:16.678Z,102691.53
2023-05-23T22:55:43.428Z,102688.94
2023-05-23T22:58:10.655Z,102688.03
2023-05-23T23:00:37.264Z,102688.81
2023-05-23T23:03:04.242Z,102691.38
2023-05-23T23:05:31.031Z,102690.53
2023-05-23T23:07:57.721Z,102687.16
2023-05-23T23:10:24.762Z,102687.09
2023-05-23T23:12:51.275Z,102685.34
2023-05-23T23:15:17.858Z,102680.19
2023-05-23T23:17:44.984Z,102685.31
2023-05-23T23:20:12.850Z,102684.47
2023-05-23T23:22:39.799Z,102689.53
2023-05-23T23:25:10.751Z,102694.63
2023-05-23T23:27:38.232Z,102690.28
2023-05-23T23:30:08.557Z,102690.25
2023-05-23T23:32:35.462Z,102694.44
2023-05-23T23:35:02.284Z,102698.69
2023-05-23T23:37:28.986Z,102693.50
2023-05-23T23:39:55.645Z,102688.38
2023-05-23T23:42:22.173Z,102686.66
2023-05-23T23:44:48.710Z,102684.06
2023-05-23T23:47:15.436Z,102682.28
2023-05-23T23:49:42.471Z,102683.09
2023-05-23T23:52:09.436Z,102681.34
2023-05-23T23:54:36.040Z,102680.53
2023-05-23T23:57:02.741Z,102672.88
2023-05-23T23:59:30.265Z,102664.34
